SKU011 YWBL-YMAV
Flight info
| Callsign | SKU011 |
|---|---|
| Flight time | N/A |
| Altitude | 5000 |
| Route | 3825S14229E 3831S14239E 3836S14250E 3838S14256E 3838S14260E 3840S14304E 3842S14308E 3845S14311E 3847S14314E 3846S14319E 3846S14322E 3848S14324E 3849S14326E 3852S14330E 3852S14333E 3851S14335E 3845S14343E 3843S14346E 3842S14351E 3839S14354E 3831S14402E 3829S14406E 3825S14413E DCT 3824S14417E DCT 3820S14420E |
| Aircraft | C182/L-SDGRY/S |
Departure
| Time | 2026-05-04 21:25 |
|---|---|
| Airport | Warrnambool Airport (YWBL) |
Arrival
| Time | N/A |
|---|---|
| Airport | Melbourne Avalon International Airport (YMAV) |
| Time | Latitude | Longitude | Altitude | Speed | Heading |
|---|---|---|---|---|---|
| 2026-05-04 21:15 | -38.30049 | 142.45111 | 226 ft | 0 kts | 255° |
| 2026-05-04 21:16 | -38.30049 | 142.45112 | 226 ft | 0 kts | 255° |
| 2026-05-04 21:17 | -38.30049 | 142.45110 | 226 ft | 1 kts | 283° |
| 2026-05-04 21:17 | -38.30043 | 142.45113 | 226 ft | 3 kts | 70° |
| 2026-05-04 21:17 | -38.30021 | 142.45156 | 226 ft | 6 kts | 40° |
| 2026-05-04 21:18 | -38.29989 | 142.45149 | 226 ft | 5 kts | 320° |
| 2026-05-04 21:18 | -38.29960 | 142.45122 | 226 ft | 6 kts | 342° |
| 2026-05-04 21:18 | -38.29927 | 142.45129 | 226 ft | 3 kts | 43° |
| 2026-05-04 21:18 | -38.29924 | 142.45133 | 227 ft | 0 kts | 43° |
| 2026-05-04 21:22 | -38.29920 | 142.45140 | 227 ft | 3 kts | 50° |
| 2026-05-04 21:23 | -38.29893 | 142.45154 | 227 ft | 8 kts | 0° |
| 2026-05-04 21:23 | -38.29839 | 142.45111 | 229 ft | 19 kts | 316° |
| 2026-05-04 21:23 | -38.29624 | 142.44854 | 275 ft | 57 kts | 307° |
| 2026-05-04 21:23 | -38.29376 | 142.44464 | 451 ft | 64 kts | 309° |
| 2026-05-04 21:24 | -38.29129 | 142.44058 | 734 ft | 53 kts | 280° |
| 2026-05-04 21:24 | -38.29590 | 142.43689 | 566 ft | 111 kts | 193° |
| 2026-05-04 21:24 | -38.30133 | 142.42989 | 610 ft | 126 kts | 260° |
| 2026-05-04 21:24 | -38.29777 | 142.41967 | 631 ft | 136 kts | 315° |
| 2026-05-04 21:25 | -38.29079 | 142.41126 | 640 ft | 140 kts | 315° |
| 2026-05-04 21:25 | -38.28374 | 142.40247 | 639 ft | 143 kts | 315° |
| 2026-05-04 21:25 | -38.27678 | 142.39373 | 731 ft | 134 kts | 314° |
| 2026-05-04 21:25 | -38.27128 | 142.38763 | 1346 ft | 104 kts | 328° |
| 2026-05-04 21:26 | -38.26426 | 142.38799 | 1520 ft | 113 kts | 51° |
| 2026-05-04 21:26 | -38.26634 | 142.39689 | 1687 ft | 115 kts | 153° |
| 2026-05-04 21:26 | -38.27377 | 142.39566 | 1971 ft | 108 kts | 202° |
| 2026-05-04 21:26 | -38.28036 | 142.39384 | 2367 ft | 98 kts | 182° |
| 2026-05-04 21:27 | -38.28756 | 142.39543 | 2570 ft | 104 kts | 163° |
| 2026-05-04 21:27 | -38.29337 | 142.39989 | 2882 ft | 102 kts | 134° |
| 2026-05-04 21:27 | -38.29637 | 142.40872 | 2982 ft | 116 kts | 100° |
| 2026-05-04 21:27 | -38.29870 | 142.41878 | 3111 ft | 122 kts | 120° |
| 2026-05-04 21:28 | -38.30323 | 142.42806 | 3260 ft | 124 kts | 123° |
| 2026-05-04 21:28 | -38.30930 | 142.43580 | 3401 ft | 125 kts | 143° |
| 2026-05-04 21:28 | -38.31612 | 142.44273 | 3553 ft | 126 kts | 142° |
| 2026-05-04 21:28 | -38.32286 | 142.44960 | 3707 ft | 126 kts | 143° |
| 2026-05-04 21:29 | -38.33062 | 142.45467 | 3847 ft | 125 kts | 156° |
| 2026-05-04 21:29 | -38.33853 | 142.45937 | 3998 ft | 125 kts | 155° |
| 2026-05-04 21:29 | -38.34666 | 142.46307 | 4144 ft | 125 kts | 169° |
| 2026-05-04 21:29 | -38.35516 | 142.46532 | 4288 ft | 125 kts | 168° |
| 2026-05-04 21:30 | -38.36401 | 142.46774 | 4299 ft | 134 kts | 168° |
| 2026-05-04 21:30 | -38.37333 | 142.47028 | 4296 ft | 139 kts | 168° |
| 2026-05-04 21:30 | -38.38281 | 142.47288 | 4296 ft | 140 kts | 168° |
| 2026-05-04 21:30 | -38.39237 | 142.47550 | 4299 ft | 141 kts | 168° |
| 2026-05-04 21:31 | -38.40940 | 142.48731 | 4286 ft | 141 kts | 146° |
| 2026-05-04 21:31 | -38.41677 | 142.49553 | 4284 ft | 141 kts | 132° |
| 2026-05-04 21:31 | -38.42322 | 142.50506 | 4286 ft | 141 kts | 131° |
| 2026-05-04 21:32 | -38.42947 | 142.51423 | 4429 ft | 133 kts | 131° |
| 2026-05-04 21:32 | -38.43538 | 142.52292 | 4595 ft | 127 kts | 131° |
| 2026-05-04 21:32 | -38.44109 | 142.53133 | 4769 ft | 124 kts | 131° |
| 2026-05-04 21:32 | -38.44669 | 142.53959 | 4935 ft | 122 kts | 131° |
| 2026-05-04 21:33 | -38.45238 | 142.54795 | 4995 ft | 129 kts | 131° |
| 2026-05-04 21:33 | -38.45842 | 142.55685 | 5000 ft | 135 kts | 131° |
| 2026-05-04 21:33 | -38.46460 | 142.56596 | 5005 ft | 136 kts | 131° |
| 2026-05-04 21:33 | -38.47074 | 142.57501 | 5007 ft | 137 kts | 131° |
| 2026-05-04 21:34 | -38.47698 | 142.58422 | 5009 ft | 137 kts | 131° |
| 2026-05-04 21:34 | -38.48325 | 142.59348 | 5008 ft | 138 kts | 131° |
| 2026-05-04 21:34 | -38.48951 | 142.60272 | 5009 ft | 138 kts | 131° |
| 2026-05-04 21:34 | -38.49578 | 142.61201 | 5009 ft | 138 kts | 131° |
| 2026-05-04 21:35 | -38.50204 | 142.62128 | 5009 ft | 138 kts | 131° |
| 2026-05-04 21:35 | -38.50830 | 142.63056 | 5009 ft | 138 kts | 131° |
| 2026-05-04 21:35 | -38.51457 | 142.63987 | 5010 ft | 138 kts | 131° |
| 2026-05-04 21:35 | -38.52083 | 142.64916 | 5009 ft | 138 kts | 131° |
| 2026-05-04 21:36 | -38.52709 | 142.65846 | 5009 ft | 138 kts | 131° |
| 2026-05-04 21:36 | -38.53335 | 142.66776 | 5009 ft | 138 kts | 131° |
| 2026-05-04 21:36 | -38.53960 | 142.67707 | 5010 ft | 138 kts | 131° |
| 2026-05-04 21:36 | -38.54584 | 142.68638 | 5010 ft | 138 kts | 130° |
| 2026-05-04 21:37 | -38.55019 | 142.69727 | 4999 ft | 138 kts | 110° |
| 2026-05-04 21:37 | -38.55356 | 142.70877 | 4999 ft | 138 kts | 111° |
| 2026-05-04 21:37 | -38.55697 | 142.72009 | 5000 ft | 138 kts | 112° |
| 2026-05-04 21:37 | -38.56082 | 142.73135 | 5000 ft | 138 kts | 114° |
| 2026-05-04 21:38 | -38.56469 | 142.74260 | 5000 ft | 138 kts | 114° |
| 2026-05-04 21:38 | -38.56856 | 142.75386 | 5000 ft | 138 kts | 114° |
| 2026-05-04 21:38 | -38.57243 | 142.76511 | 5000 ft | 138 kts | 114° |
| 2026-05-04 21:38 | -38.57628 | 142.77638 | 5000 ft | 138 kts | 114° |
| 2026-05-04 21:39 | -38.58013 | 142.78764 | 5000 ft | 138 kts | 114° |
| 2026-05-04 21:39 | -38.58398 | 142.79890 | 5000 ft | 138 kts | 114° |
| 2026-05-04 21:39 | -38.58783 | 142.81017 | 5000 ft | 138 kts | 114° |
| 2026-05-04 21:39 | -38.59167 | 142.82144 | 5000 ft | 138 kts | 114° |
| 2026-05-04 21:40 | -38.59551 | 142.83274 | 5000 ft | 138 kts | 114° |
| 2026-05-04 21:40 | -38.59935 | 142.84401 | 5000 ft | 138 kts | 114° |
| 2026-05-04 21:40 | -38.60318 | 142.85531 | 5000 ft | 138 kts | 114° |
| 2026-05-04 21:40 | -38.60702 | 142.86661 | 5000 ft | 139 kts | 114° |
| 2026-05-04 21:41 | -38.61085 | 142.87791 | 5000 ft | 139 kts | 114° |
| 2026-05-04 21:41 | -38.61467 | 142.88923 | 5000 ft | 138 kts | 114° |
| 2026-05-04 21:41 | -38.61849 | 142.90052 | 5000 ft | 138 kts | 114° |
| 2026-05-04 21:41 | -38.62229 | 142.91181 | 5000 ft | 138 kts | 113° |
| 2026-05-04 21:42 | -38.62377 | 142.92369 | 4994 ft | 138 kts | 95° |
| 2026-05-04 21:42 | -38.62484 | 142.93588 | 4997 ft | 139 kts | 96° |
| 2026-05-04 21:42 | -38.62632 | 142.94810 | 4995 ft | 139 kts | 101° |
| 2026-05-04 21:42 | -38.62814 | 142.96021 | 4995 ft | 139 kts | 101° |
| 2026-05-04 21:43 | -38.63015 | 142.97225 | 4995 ft | 138 kts | 105° |
| 2026-05-04 21:43 | -38.63309 | 142.98399 | 4994 ft | 138 kts | 111° |
| 2026-05-04 21:43 | -38.63667 | 142.99518 | 4990 ft | 134 kts | 112° |
| 2026-05-04 21:43 | -38.64010 | 143.00596 | 4993 ft | 128 kts | 112° |
| 2026-05-04 21:44 | -38.64345 | 143.01647 | 4991 ft | 128 kts | 112° |
| 2026-05-04 21:44 | -38.64677 | 143.02694 | 4991 ft | 126 kts | 112° |
| 2026-05-04 21:44 | -38.65006 | 143.03730 | 4991 ft | 126 kts | 112° |
| 2026-05-04 21:44 | -38.65336 | 143.04770 | 4990 ft | 126 kts | 112° |
| 2026-05-04 21:45 | -38.65704 | 143.05779 | 4991 ft | 125 kts | 117° |
| 2026-05-04 21:45 | -38.66101 | 143.06774 | 4990 ft | 125 kts | 117° |
| 2026-05-04 21:45 | -38.66495 | 143.07767 | 4990 ft | 125 kts | 117° |
| 2026-05-04 21:45 | -38.66885 | 143.08746 | 4990 ft | 125 kts | 117° |
| 2026-05-04 21:46 | -38.67313 | 143.09714 | 4991 ft | 125 kts | 120° |
| 2026-05-04 21:46 | -38.67747 | 143.10679 | 4991 ft | 125 kts | 120° |
| 2026-05-04 21:46 | -38.68202 | 143.11628 | 4991 ft | 125 kts | 122° |
| 2026-05-04 21:46 | -38.68660 | 143.12574 | 4991 ft | 125 kts | 122° |
| 2026-05-04 21:47 | -38.69132 | 143.13507 | 4986 ft | 125 kts | 130° |
| 2026-05-04 21:47 | -38.69787 | 143.14221 | 4993 ft | 124 kts | 141° |
| 2026-05-04 21:47 | -38.70452 | 143.14924 | 4994 ft | 124 kts | 141° |
| 2026-05-04 21:47 | -38.71119 | 143.15629 | 4994 ft | 124 kts | 141° |
| 2026-05-04 21:48 | -38.71787 | 143.16336 | 4994 ft | 124 kts | 141° |
| 2026-05-04 21:48 | -38.72454 | 143.17043 | 4995 ft | 124 kts | 141° |
| 2026-05-04 21:48 | -38.73121 | 143.17751 | 4995 ft | 125 kts | 141° |
| 2026-05-04 21:48 | -38.73563 | 143.18218 | 4995 ft | 125 kts | 141° |
| 2026-05-04 21:49 | -38.74232 | 143.18928 | 4995 ft | 125 kts | 141° |
| 2026-05-04 21:49 | -38.74899 | 143.19638 | 4995 ft | 125 kts | 141° |
| 2026-05-04 21:49 | -38.75569 | 143.20350 | 4995 ft | 125 kts | 141° |
| 2026-05-04 21:49 | -38.76238 | 143.21062 | 4995 ft | 125 kts | 141° |
| 2026-05-04 21:50 | -38.76905 | 143.21773 | 4995 ft | 125 kts | 141° |
| 2026-05-04 21:50 | -38.77570 | 143.22483 | 4995 ft | 125 kts | 141° |
| 2026-05-04 21:50 | -38.78236 | 143.23194 | 4995 ft | 125 kts | 141° |
| 2026-05-04 21:50 | -38.78902 | 143.23906 | 4995 ft | 125 kts | 141° |
| 2026-05-04 21:51 | -38.79569 | 143.24620 | 4995 ft | 125 kts | 141° |
| 2026-05-04 21:51 | -38.80235 | 143.25332 | 4995 ft | 125 kts | 141° |
| 2026-05-04 21:51 | -38.80891 | 143.26035 | 4995 ft | 125 kts | 141° |
| 2026-05-04 21:51 | -38.81555 | 143.26747 | 4995 ft | 125 kts | 141° |
| 2026-05-04 21:52 | -38.82081 | 143.27602 | 4977 ft | 125 kts | 102° |
| 2026-05-04 21:52 | -38.81855 | 143.29039 | 4995 ft | 124 kts | 76° |
| 2026-05-04 21:52 | -38.81719 | 143.29751 | 4997 ft | 124 kts | 76° |
| 2026-05-04 21:52 | -38.81508 | 143.30826 | 4999 ft | 125 kts | 76° |
| 2026-05-04 21:53 | -38.81296 | 143.31907 | 5000 ft | 125 kts | 76° |
| 2026-05-04 21:53 | -38.81083 | 143.32988 | 5001 ft | 125 kts | 75° |
| 2026-05-04 21:53 | -38.80871 | 143.34069 | 5002 ft | 125 kts | 75° |
| 2026-05-04 21:53 | -38.80657 | 143.35151 | 5002 ft | 125 kts | 75° |
| 2026-05-04 21:54 | -38.80443 | 143.36235 | 5002 ft | 125 kts | 75° |
| 2026-05-04 21:54 | -38.80229 | 143.37316 | 5002 ft | 125 kts | 75° |
| 2026-05-04 21:54 | -38.80015 | 143.38400 | 5002 ft | 125 kts | 75° |
| 2026-05-04 21:54 | -38.79800 | 143.39482 | 5002 ft | 125 kts | 75° |
| 2026-05-04 21:55 | -38.79585 | 143.40566 | 5002 ft | 125 kts | 75° |
| 2026-05-04 21:55 | -38.79359 | 143.41642 | 5001 ft | 125 kts | 71° |
| 2026-05-04 21:55 | -38.79019 | 143.42670 | 5000 ft | 125 kts | 66° |
| 2026-05-04 21:55 | -38.78680 | 143.43681 | 5000 ft | 125 kts | 66° |
| 2026-05-04 21:56 | -38.78336 | 143.44708 | 5001 ft | 126 kts | 66° |
| 2026-05-04 21:56 | -38.77990 | 143.45739 | 5003 ft | 126 kts | 66° |
| 2026-05-04 21:56 | -38.77640 | 143.46779 | 5004 ft | 127 kts | 66° |
| 2026-05-04 21:56 | -38.77292 | 143.47816 | 5004 ft | 126 kts | 66° |
| 2026-05-04 21:57 | -38.76946 | 143.48843 | 5000 ft | 124 kts | 66° |
| 2026-05-04 21:57 | -38.76602 | 143.49864 | 5000 ft | 124 kts | 66° |
| 2026-05-04 21:57 | -38.76256 | 143.50885 | 5003 ft | 126 kts | 66° |
| 2026-05-04 21:57 | -38.75909 | 143.51917 | 5001 ft | 126 kts | 66° |
| 2026-05-04 21:58 | -38.75561 | 143.52945 | 5002 ft | 125 kts | 66° |
| 2026-05-04 21:58 | -38.75086 | 143.53879 | 4997 ft | 125 kts | 51° |
| 2026-05-04 21:58 | -38.74567 | 143.54747 | 4996 ft | 125 kts | 52° |
| 2026-05-04 21:58 | -38.74041 | 143.55631 | 4997 ft | 125 kts | 52° |
| 2026-05-04 21:59 | -38.73513 | 143.56518 | 4997 ft | 125 kts | 52° |
| 2026-05-04 21:59 | -38.72986 | 143.57402 | 4997 ft | 125 kts | 52° |
| 2026-05-04 21:59 | -38.72459 | 143.58286 | 4996 ft | 125 kts | 52° |
| 2026-05-04 21:59 | -38.71931 | 143.59170 | 4996 ft | 125 kts | 52° |
| 2026-05-04 22:00 | -38.71405 | 143.60050 | 4997 ft | 125 kts | 52° |
| 2026-05-04 22:00 | -38.70876 | 143.60934 | 4996 ft | 125 kts | 52° |
| 2026-05-04 22:00 | -38.70348 | 143.61816 | 4995 ft | 125 kts | 52° |
| 2026-05-04 22:00 | -38.69820 | 143.62698 | 4997 ft | 125 kts | 52° |
| 2026-05-04 22:01 | -38.69289 | 143.63583 | 4996 ft | 125 kts | 52° |
| 2026-05-04 22:01 | -38.68762 | 143.64463 | 4997 ft | 125 kts | 52° |
| 2026-05-04 22:01 | -38.68232 | 143.65345 | 4995 ft | 124 kts | 52° |
| 2026-05-04 22:01 | -38.67704 | 143.66223 | 4997 ft | 125 kts | 52° |
| 2026-05-04 22:02 | -38.67173 | 143.67105 | 4996 ft | 125 kts | 52° |
| 2026-05-04 22:02 | -38.66643 | 143.67985 | 4997 ft | 125 kts | 52° |
| 2026-05-04 22:02 | -38.66112 | 143.68865 | 4997 ft | 125 kts | 52° |
| 2026-05-04 22:02 | -38.65581 | 143.69746 | 4997 ft | 125 kts | 52° |
| 2026-05-04 22:03 | -38.65050 | 143.70624 | 4997 ft | 125 kts | 52° |
| 2026-05-04 22:03 | -38.64519 | 143.71503 | 4995 ft | 125 kts | 51° |
| 2026-05-04 22:03 | -38.63996 | 143.72367 | 4995 ft | 124 kts | 51° |
| 2026-05-04 22:03 | -38.63466 | 143.73243 | 4995 ft | 125 kts | 52° |
| 2026-05-04 22:04 | -38.62934 | 143.74121 | 4996 ft | 125 kts | 51° |
| 2026-05-04 22:04 | -38.62395 | 143.75010 | 4997 ft | 127 kts | 51° |
| 2026-05-04 22:04 | -38.61857 | 143.75895 | 4997 ft | 126 kts | 51° |
| 2026-05-04 22:04 | -38.61322 | 143.76775 | 4997 ft | 125 kts | 51° |
| 2026-05-04 22:05 | -38.60788 | 143.77652 | 4996 ft | 125 kts | 51° |
| 2026-05-04 22:05 | -38.60255 | 143.78528 | 4996 ft | 125 kts | 51° |
| 2026-05-04 22:05 | -38.59722 | 143.79404 | 4996 ft | 125 kts | 51° |
| 2026-05-04 22:05 | -38.59187 | 143.80280 | 4996 ft | 125 kts | 51° |
| 2026-05-04 22:06 | -38.58652 | 143.81158 | 4995 ft | 125 kts | 51° |
| 2026-05-04 22:06 | -38.58125 | 143.82021 | 4995 ft | 125 kts | 51° |
| 2026-05-04 22:06 | -38.57592 | 143.82894 | 4995 ft | 125 kts | 51° |
| 2026-05-04 22:06 | -38.57058 | 143.83766 | 4995 ft | 125 kts | 51° |
| 2026-05-04 22:07 | -38.56524 | 143.84638 | 4995 ft | 125 kts | 51° |
| 2026-05-04 22:07 | -38.55991 | 143.85509 | 4995 ft | 124 kts | 51° |
| 2026-05-04 22:07 | -38.55456 | 143.86380 | 4995 ft | 124 kts | 51° |
| 2026-05-04 22:07 | -38.54802 | 143.87088 | 4992 ft | 124 kts | 35° |
| 2026-05-04 22:08 | -38.54112 | 143.87751 | 4993 ft | 124 kts | 36° |
| 2026-05-04 22:08 | -38.53454 | 143.88459 | 4990 ft | 124 kts | 46° |
| 2026-05-04 22:08 | -38.52866 | 143.89269 | 4991 ft | 124 kts | 46° |
| 2026-05-04 22:08 | -38.52275 | 143.90075 | 4991 ft | 124 kts | 46° |
| 2026-05-04 22:09 | -38.51683 | 143.90881 | 4991 ft | 124 kts | 46° |
| 2026-05-04 22:09 | -38.51092 | 143.91685 | 4991 ft | 124 kts | 46° |
| 2026-05-04 22:09 | -38.50499 | 143.92490 | 4991 ft | 124 kts | 46° |
| 2026-05-04 22:09 | -38.49906 | 143.93296 | 4992 ft | 124 kts | 46° |
| 2026-05-04 22:10 | -38.49314 | 143.94099 | 4992 ft | 124 kts | 46° |
| 2026-05-04 22:10 | -38.48721 | 143.94904 | 4992 ft | 124 kts | 46° |
| 2026-05-04 22:10 | -38.48127 | 143.95709 | 4992 ft | 125 kts | 46° |
| 2026-05-04 22:10 | -38.47533 | 143.96512 | 4992 ft | 124 kts | 46° |
| 2026-05-04 22:11 | -38.46939 | 143.97315 | 4992 ft | 124 kts | 46° |
| 2026-05-04 22:11 | -38.46345 | 143.98117 | 4992 ft | 124 kts | 46° |
| 2026-05-04 22:11 | -38.45744 | 143.98928 | 4895 ft | 131 kts | 46° |
| 2026-05-04 22:11 | -38.45099 | 143.99797 | 4777 ft | 135 kts | 46° |
| 2026-05-04 22:12 | -38.44458 | 144.00658 | 4658 ft | 136 kts | 46° |
| 2026-05-04 22:12 | -38.43803 | 144.01539 | 4534 ft | 137 kts | 46° |
| 2026-05-04 22:12 | -38.43141 | 144.02428 | 4414 ft | 138 kts | 46° |
| 2026-05-04 22:12 | -38.42482 | 144.03312 | 4290 ft | 138 kts | 46° |
| 2026-05-04 22:13 | -38.41821 | 144.04196 | 4168 ft | 138 kts | 46° |
| 2026-05-04 22:13 | -38.41159 | 144.05082 | 4042 ft | 138 kts | 46° |
| 2026-05-04 22:13 | -38.40507 | 144.05954 | 4010 ft | 133 kts | 46° |
| 2026-05-04 22:13 | -38.39878 | 144.06797 | 4002 ft | 129 kts | 46° |
| 2026-05-04 22:14 | -38.39262 | 144.07620 | 3989 ft | 127 kts | 46° |
| 2026-05-04 22:14 | -38.38655 | 144.08431 | 3997 ft | 126 kts | 45° |
| 2026-05-04 22:14 | -38.38050 | 144.09239 | 3996 ft | 127 kts | 45° |
| 2026-05-04 22:14 | -38.37439 | 144.10053 | 3942 ft | 130 kts | 46° |
| 2026-05-04 22:15 | -38.36797 | 144.10908 | 3818 ft | 135 kts | 45° |
| 2026-05-04 22:15 | -38.36153 | 144.11765 | 3699 ft | 136 kts | 45° |
| 2026-05-04 22:15 | -38.35494 | 144.12641 | 3571 ft | 137 kts | 45° |
| 2026-05-04 22:15 | -38.34832 | 144.13521 | 3456 ft | 138 kts | 45° |
| 2026-05-04 22:16 | -38.34164 | 144.14407 | 3330 ft | 139 kts | 45° |
| 2026-05-04 22:16 | -38.33496 | 144.15288 | 3206 ft | 138 kts | 44° |
| 2026-05-04 22:16 | -38.32777 | 144.16092 | 3084 ft | 137 kts | 39° |
| 2026-05-04 22:16 | -38.32045 | 144.16878 | 3005 ft | 135 kts | 39° |
| 2026-05-04 22:17 | -38.31339 | 144.17637 | 3002 ft | 131 kts | 39° |
| 2026-05-04 22:17 | -38.30650 | 144.18377 | 2998 ft | 128 kts | 39° |
| 2026-05-04 22:17 | -38.29971 | 144.19105 | 2994 ft | 127 kts | 39° |
| 2026-05-04 22:17 | -38.29294 | 144.19831 | 2992 ft | 127 kts | 39° |
| 2026-05-04 22:18 | -38.28630 | 144.20542 | 2993 ft | 126 kts | 39° |
| 2026-05-04 22:18 | -38.27962 | 144.21257 | 2994 ft | 125 kts | 39° |
| 2026-05-04 22:18 | -38.27301 | 144.21982 | 2996 ft | 126 kts | 43° |
| 2026-05-04 22:18 | -38.26835 | 144.22916 | 2994 ft | 126 kts | 66° |
| 2026-05-04 22:19 | -38.26465 | 144.23931 | 2994 ft | 126 kts | 64° |
| 2026-05-04 22:19 | -38.26088 | 144.24941 | 2995 ft | 126 kts | 64° |
| 2026-05-04 22:19 | -38.25704 | 144.25972 | 2888 ft | 133 kts | 64° |
| 2026-05-04 22:19 | -38.25301 | 144.27051 | 2768 ft | 136 kts | 64° |
| 2026-05-04 22:20 | -38.24895 | 144.28138 | 2649 ft | 137 kts | 64° |
| 2026-05-04 22:20 | -38.24485 | 144.29234 | 2528 ft | 138 kts | 64° |
| 2026-05-04 22:20 | -38.24073 | 144.30337 | 2404 ft | 138 kts | 64° |
| 2026-05-04 22:20 | -38.23660 | 144.31437 | 2281 ft | 138 kts | 64° |
| 2026-05-04 22:21 | -38.23250 | 144.32528 | 2159 ft | 138 kts | 64° |
| 2026-05-04 22:21 | -38.22834 | 144.33636 | 2027 ft | 139 kts | 64° |
| 2026-05-04 22:21 | -38.22425 | 144.34722 | 2005 ft | 133 kts | 64° |
| 2026-05-04 22:21 | -38.22029 | 144.35774 | 1999 ft | 130 kts | 64° |
| 2026-05-04 22:22 | -38.21643 | 144.36799 | 1998 ft | 128 kts | 64° |
| 2026-05-04 22:22 | -38.21257 | 144.37821 | 1999 ft | 128 kts | 64° |
| 2026-05-04 22:22 | -38.20868 | 144.38851 | 1994 ft | 129 kts | 64° |
| 2026-05-04 22:22 | -38.20480 | 144.39877 | 1993 ft | 128 kts | 64° |
| 2026-05-04 22:23 | -38.20097 | 144.40895 | 1992 ft | 127 kts | 64° |
| 2026-05-04 22:23 | -38.19586 | 144.41793 | 1991 ft | 125 kts | 50° |
| 2026-05-04 22:23 | -38.19053 | 144.42667 | 1990 ft | 125 kts | 52° |
| 2026-05-04 22:23 | -38.18524 | 144.43541 | 1993 ft | 125 kts | 52° |
| 2026-05-04 22:24 | -38.17999 | 144.44408 | 1992 ft | 125 kts | 52° |
| 2026-05-04 22:24 | -38.17461 | 144.45283 | 1995 ft | 127 kts | 50° |
| 2026-05-04 22:24 | -38.16879 | 144.46127 | 2001 ft | 127 kts | 46° |
| 2026-05-04 22:24 | -38.16257 | 144.46933 | 1993 ft | 127 kts | 42° |
| 2026-05-04 22:25 | -38.15603 | 144.47678 | 1993 ft | 125 kts | 38° |
| 2026-05-04 22:25 | -38.14890 | 144.48313 | 1991 ft | 125 kts | 33° |
| 2026-05-04 22:25 | -38.14158 | 144.48914 | 1959 ft | 127 kts | 32° |
| 2026-05-04 22:25 | -38.13393 | 144.49533 | 1838 ft | 133 kts | 32° |
| 2026-05-04 22:26 | -38.12596 | 144.50149 | 1716 ft | 135 kts | 28° |
| 2026-05-04 22:26 | -38.11768 | 144.50715 | 1595 ft | 136 kts | 27° |
| 2026-05-04 22:26 | -38.10937 | 144.51285 | 1471 ft | 136 kts | 27° |
| 2026-05-04 22:26 | -38.10117 | 144.51885 | 1347 ft | 136 kts | 30° |
| 2026-05-04 22:27 | -38.09300 | 144.52492 | 1223 ft | 136 kts | 30° |
| 2026-05-04 22:27 | -38.08481 | 144.53098 | 1098 ft | 136 kts | 30° |
| 2026-05-04 22:27 | -38.07665 | 144.53703 | 1005 ft | 134 kts | 30° |
| 2026-05-04 22:27 | -38.06920 | 144.54358 | 994 ft | 129 kts | 45° |
| 2026-05-04 22:28 | -38.06345 | 144.55198 | 990 ft | 127 kts | 45° |
| 2026-05-04 22:28 | -38.05714 | 144.55972 | 991 ft | 125 kts | 44° |
| 2026-05-04 22:28 | -38.05099 | 144.56756 | 994 ft | 125 kts | 44° |
| 2026-05-04 22:28 | -38.04487 | 144.57536 | 989 ft | 125 kts | 44° |
| 2026-05-04 22:29 | -38.03872 | 144.58316 | 992 ft | 125 kts | 44° |
| 2026-05-04 22:29 | -38.03257 | 144.59095 | 993 ft | 125 kts | 44° |
| 2026-05-04 22:29 | -38.02641 | 144.59875 | 990 ft | 125 kts | 44° |
| 2026-05-04 22:29 | -38.02026 | 144.60655 | 990 ft | 125 kts | 44° |
| 2026-05-04 22:30 | -38.01411 | 144.61435 | 992 ft | 125 kts | 44° |
| 2026-05-04 22:30 | -38.00806 | 144.62224 | 993 ft | 125 kts | 46° |
| 2026-05-04 22:30 | -38.00214 | 144.63027 | 990 ft | 125 kts | 47° |
| 2026-05-04 22:30 | -37.99642 | 144.63855 | 993 ft | 125 kts | 49° |
| 2026-05-04 22:31 | -37.99083 | 144.64707 | 992 ft | 125 kts | 52° |
| 2026-05-04 22:31 | -37.98569 | 144.65594 | 991 ft | 125 kts | 53° |
| 2026-05-04 22:31 | -37.98060 | 144.66473 | 991 ft | 125 kts | 53° |
| 2026-05-04 22:31 | -37.97540 | 144.67367 | 997 ft | 127 kts | 53° |
| 2026-05-04 22:32 | -37.97018 | 144.68265 | 994 ft | 126 kts | 53° |
| 2026-05-04 22:32 | -37.96497 | 144.69165 | 992 ft | 126 kts | 53° |
| 2026-05-04 22:32 | -37.95977 | 144.70061 | 992 ft | 126 kts | 53° |
| 2026-05-04 22:32 | -37.95455 | 144.70959 | 996 ft | 126 kts | 53° |
| 2026-05-04 22:33 | -37.94931 | 144.71856 | 995 ft | 127 kts | 53° |
| 2026-05-04 22:33 | -37.94407 | 144.72753 | 994 ft | 127 kts | 53° |
| 2026-05-04 22:33 | -37.93855 | 144.73624 | 996 ft | 127 kts | 49° |
| 2026-05-04 22:33 | -37.93283 | 144.74474 | 998 ft | 127 kts | 49° |
| 2026-05-04 22:34 | -37.92709 | 144.75325 | 993 ft | 127 kts | 49° |
| 2026-05-04 22:34 | -37.92138 | 144.76172 | 995 ft | 126 kts | 49° |
| 2026-05-04 22:34 | -37.91556 | 144.77033 | 997 ft | 133 kts | 49° |
| 2026-05-04 22:34 | -37.90966 | 144.77907 | 994 ft | 122 kts | 49° |
| 2026-05-04 22:35 | -37.90615 | 144.78426 | 991 ft | 113 kts | 49° |
| 2026-05-04 22:35 | -37.89891 | 144.79464 | 995 ft | 126 kts | 48° |
| 2026-05-04 22:35 | -37.89298 | 144.80310 | 1004 ft | 131 kts | 47° |
| 2026-05-04 22:35 | -37.88662 | 144.81148 | 1008 ft | 132 kts | 44° |
| 2026-05-04 22:36 | -37.88012 | 144.81980 | 1008 ft | 131 kts | 45° |
| 2026-05-04 22:36 | -37.87603 | 144.82506 | 1002 ft | 123 kts | 45° |
| 2026-05-04 22:36 | -37.87016 | 144.83258 | 998 ft | 118 kts | 44° |
| 2026-05-04 22:36 | -37.86440 | 144.83995 | 993 ft | 117 kts | 44° |
| 2026-05-04 22:37 | -37.85869 | 144.84721 | 991 ft | 115 kts | 43° |
| 2026-05-04 22:37 | -37.85227 | 144.85298 | 993 ft | 113 kts | 33° |
| 2026-05-04 22:37 | -37.84518 | 144.85711 | 989 ft | 112 kts | 19° |
| 2026-05-04 22:37 | -37.83793 | 144.86070 | 993 ft | 111 kts | 19° |
| 2026-05-04 22:38 | -37.83047 | 144.86324 | 991 ft | 111 kts | 13° |
| 2026-05-04 22:38 | -37.82278 | 144.86407 | 994 ft | 111 kts | 360° |
| 2026-05-04 22:38 | -37.81506 | 144.86432 | 993 ft | 111 kts | 0° |
| 2026-05-04 22:38 | -37.80732 | 144.86405 | 995 ft | 111 kts | 355° |
| 2026-05-04 22:39 | -37.79962 | 144.86308 | 993 ft | 111 kts | 352° |
| 2026-05-04 22:39 | -37.79198 | 144.86163 | 993 ft | 111 kts | 350° |
| 2026-05-04 22:39 | -37.78420 | 144.86015 | 913 ft | 117 kts | 350° |
| 2026-05-04 22:39 | -37.77597 | 144.85841 | 792 ft | 121 kts | 348° |
| 2026-05-04 22:40 | -37.76764 | 144.85640 | 672 ft | 123 kts | 348° |
| 2026-05-04 22:40 | -37.75923 | 144.85437 | 551 ft | 123 kts | 348° |
| 2026-05-04 22:40 | -37.75093 | 144.85236 | 511 ft | 117 kts | 348° |
| 2026-05-04 22:40 | -37.74320 | 144.85056 | 508 ft | 110 kts | 351° |
| 2026-05-04 22:41 | -37.73572 | 144.84932 | 506 ft | 107 kts | 353° |
| 2026-05-04 22:41 | -37.72853 | 144.84869 | 503 ft | 106 kts | 355° |
| 2026-05-04 22:41 | -37.72123 | 144.84774 | 501 ft | 105 kts | 352° |
| 2026-05-04 22:41 | -37.71399 | 144.84662 | 500 ft | 105 kts | 352° |
| 2026-05-04 22:42 | -37.70679 | 144.84530 | 500 ft | 104 kts | 350° |
| 2026-05-04 22:42 | -37.70090 | 144.84414 | 504 ft | 72 kts | 350° |
| 2026-05-04 22:42 | -37.69643 | 144.84333 | 467 ft | 59 kts | 350° |
| 2026-05-04 22:42 | -37.69236 | 144.84242 | 450 ft | 59 kts | 345° |
| 2026-05-04 22:43 | -37.68825 | 144.84202 | 448 ft | 57 kts | 347° |
| 2026-05-04 22:43 | -37.68439 | 144.84099 | 405 ft | 56 kts | 346° |
| 2026-05-04 22:43 | -37.68067 | 144.84045 | 355 ft | 49 kts | 4° |
| 2026-05-04 22:43 | -37.67883 | 144.84021 | 357 ft | 17 kts | 336° |
| 2026-05-04 22:44 | -37.67802 | 144.83949 | 360 ft | 12 kts | 345° |
| 2026-05-04 22:44 | -37.67742 | 144.83949 | 363 ft | 6 kts | 338° |
| 2026-05-04 22:44 | -37.67720 | 144.83939 | 363 ft | 1 kts | 348° |
| 2026-05-04 22:44 | -37.67682 | 144.83945 | 364 ft | 11 kts | 14° |
| 2026-05-04 22:45 | -37.67561 | 144.84009 | 368 ft | 18 kts | 32° |
| 2026-05-04 22:45 | -37.67499 | 144.84198 | 370 ft | 10 kts | 80° |
| 2026-05-04 22:45 | -37.67487 | 144.84277 | 371 ft | 9 kts | 78° |
| 2026-05-04 22:46 | -37.67466 | 144.84402 | 373 ft | 18 kts | 78° |
| 2026-05-04 22:46 | -37.67459 | 144.84560 | 376 ft | 17 kts | 98° |
| 2026-05-04 22:46 | -37.67477 | 144.84667 | 377 ft | 9 kts | 122° |
| 2026-05-04 22:46 | -37.67493 | 144.84687 | 376 ft | 1 kts | 171° |
| 2026-05-04 22:47 | -37.67518 | 144.84691 | 375 ft | 6 kts | 171° |
| 2026-05-04 22:47 | -37.67548 | 144.84699 | 374 ft | 0 kts | 162° |